Oscoda, MI (48750)

2:52 PM EST on February 08, 2016 (GMT -0500)
3 Miles N. of Oscoda, along Lk. Huron | | Change Station
CLOSE
Current Station
Personal Weather Station
Location: Oscoda, MI
Elevation: 610 ft
Nearby Weather Stations

Elev 610 ft 44.47 °N, 83.32 °W | Updated 8 seconds ago

Overcast
Overcast
38.7 °F
Feels Like 39 °F
N
0.0
Wind Variable Wind from East
Gusts 0.0 mph

Today
High -- | Low -- °F
--% Chance of Precip.
Yesterday
High -- | Low -- °F
Precip. -- in
Pressure 29.55 in
Visibility 10.0 miles
Clouds Overcast 3700 ft
Windchill 39 °F
Dew Point 32 °F
Humidity 41%
Rainfall 0.00 in
Snow Depth Not available.
7:44 AM 5:52 PM
New Moon, 0% visible
METAR KOSC 081933Z AUTO 11003KT 10SM OVC037 04/00 A2955 RMK AO2 T00350000
Pressure 29.55 in
Visibility 10.0 miles
Clouds Overcast 3700 ft
Windchill 39 °F
Dew Point 32 °F
Humidity 41%
Rainfall 0.00 in
Snow Depth Not available.
7:44 AM 5:52 PM
New Moon, 0% visible
METAR KOSC 081933Z AUTO 11003KT 10SM OVC037 04/00 A2955 RMK AO2 T00350000

10-Day Weather Forecast

Almanac

Astronomy

Feb. 08, 2016 Rise Set
Actual Time
Civil Twilight
Nautical Twilight
Astronomical Twilight
Moon
Length of Visible Light
Length of Day
Tomorrow will be .
, % of the Moon is Illuminated

Today's Extremes

State Highs State Lows

Community

WunderPhotos

Upload Photos

1,891,499 photos uploaded!

WunderBlog® & News

Nearby

Air Quality

  Air Quality AQ Index Pollutant
Not available.

Snow Depth

Station Depth Elevation

Earthquake Activity

City Distance Mag. Time & Date
Minimum magnitude displayed is 2.5.

Coastal Water Temperatures

Place Temperature

Stations

Nearby Weather Stations

Station Location Temp. Windchill Dew Point Humidity Wind Precip. Elev Updated Type
                   

Watches & Warnings

There are currently no watches in effect.